Time;durP1;ratioP1;P1;durP2;ratioP2;P2;SDS_P1;SDS_P2;PMS_P1;PMS_P2;Temp;Humidity;BMP_temperature;BMP_pressure;BME280_temperature;BME280_humidity;BME280_pressure;Samples;Min_cycle;Max_cycle;Signal;HPM_P1;HPM_P2
2023/06/26 00:01:22;;;;;;;9.38;6.50;;;25.00;95.40;;;;;;4971576;28;20511;-68
2023/06/26 00:03:48;;;;;;;7.82;6.18;;;24.90;95.40;;;;;;4967202;28;20047;-68
2023/06/26 00:06:14;;;;;;;8.73;6.80;;;24.90;95.40;;;;;;4972720;28;20050;-77
2023/06/26 00:08:40;;;;;;;9.88;6.78;;;24.90;95.60;;;;;;4949518;28;20125;-68
2023/06/26 00:11:06;;;;;;;7.50;6.50;;;24.80;95.60;;;;;;4973008;28;20130;-68
2023/06/26 00:13:31;;;;;;;8.25;6.38;;;24.80;95.70;;;;;;4972346;28;20126;-67
2023/06/26 00:15:57;;;;;;;8.38;7.07;;;24.80;95.80;;;;;;4973081;28;20039;-68
2023/06/26 00:18:23;;;;;;;8.38;6.57;;;24.80;95.70;;;;;;4972558;28;20054;-68
2023/06/26 00:20:49;;;;;;;8.35;6.78;;;24.70;95.80;;;;;;4972628;28;20117;-68
2023/06/26 00:23:18;;;;;;;9.32;6.70;;;24.80;95.80;;;;;;4972836;28;20050;-76
2023/06/26 00:25:44;;;;;;;6.68;5.90;;;24.70;95.90;;;;;;4955588;28;20077;-68
2023/06/26 00:28:10;;;;;;;7.68;6.88;;;24.70;96.20;;;;;;4942823;28;20078;-68
2023/06/26 00:30:36;;;;;;;9.98;7.22;;;24.60;95.90;;;;;;4972628;28;20871;-67
2023/06/26 00:33:01;;;;;;;8.05;6.55;;;24.60;96.00;;;;;;4971008;28;20511;-67
2023/06/26 00:35:27;;;;;;;7.88;6.63;;;24.60;96.00;;;;;;4972202;28;20043;-68
2023/06/26 00:37:53;;;;;;;7.82;7.00;;;24.60;96.20;;;;;;4973017;28;20047;-68
2023/06/26 00:40:18;;;;;;;9.23;6.72;;;24.60;96.10;;;;;;4955252;28;20047;-77
2023/06/26 00:42:44;;;;;;;7.65;6.63;;;24.50;96.20;;;;;;4972998;28;20078;-68
2023/06/26 00:45:10;;;;;;;7.60;6.78;;;24.60;96.30;;;;;;4972162;28;20051;-68
2023/06/26 00:47:36;;;;;;;8.88;6.50;;;24.60;96.40;;;;;;4972414;28;20041;-67
2023/06/26 00:50:03;;;;;;;7.90;7.10;;;24.50;96.70;;;;;;4954726;28;20047;-68
2023/06/26 00:52:29;;;;;;;8.90;7.38;;;24.50;96.90;;;;;;4955229;28;20059;-67
2023/06/26 00:54:56;;;;;;;9.93;7.55;;;24.40;96.90;;;;;;4955207;28;20125;-68
2023/06/26 00:57:21;;;;;;;8.35;6.75;;;24.30;97.10;;;;;;4972365;28;20066;-76
2023/06/26 00:59:48;;;;;;;7.78;6.85;;;24.30;97.20;;;;;;4972308;28;20476;-69
2023/06/26 01:02:17;;;;;;;8.05;7.25;;;24.30;97.30;;;;;;4970939;28;20400;-68
2023/06/26 01:04:46;;;;;;;8.15;7.03;;;24.20;97.30;;;;;;4971074;28;20051;-68
2023/06/26 01:07:13;;;;;;;8.85;7.53;;;24.20;97.40;;;;;;4954614;28;20400;-68
2023/06/26 01:09:39;;;;;;;10.13;8.18;;;24.10;97.60;;;;;;4938519;28;20118;-68
2023/06/26 01:12:05;;;;;;;10.20;8.02;;;24.20;97.60;;;;;;4943304;29;20541;-67
2023/06/26 01:14:32;;;;;;;8.75;7.65;;;24.10;97.70;;;;;;4972529;28;20480;-67
2023/06/26 01:17:01;;;;;;;10.05;7.50;;;24.10;97.80;;;;;;4974943;28;20081;-67
2023/06/26 01:19:28;;;;;;;8.20;7.10;;;24.10;97.90;;;;;;4974141;28;20504;-69
2023/06/26 01:22:19;;;;;;;10.90;7.82;;;24.10;97.90;;;;;;4974221;28;20085;-68
2023/06/26 01:25:17;;;;;;;8.85;7.45;;;24.00;98.20;;;;;;4974314;28;20268;-69
2023/06/26 01:27:49;;;;;;;8.68;7.75;;;24.00;98.20;;;;;;4965881;28;20420;-69
2023/06/26 01:30:17;;;;;;;8.38;7.35;;;23.90;98.00;;;;;;4975151;28;20512;-68
2023/06/26 01:32:44;;;;;;;8.73;7.32;;;24.00;98.10;;;;;;4974582;28;20047;-68
2023/06/26 01:35:12;;;;;;;10.10;7.47;;;24.00;98.10;;;;;;4974991;28;20073;-68
2023/06/26 01:37:37;;;;;;;10.40;7.88;;;24.00;98.40;;;;;;4973859;28;20077;-68
2023/06/26 01:40:07;;;;;;;8.52;7.10;;;23.90;98.30;;;;;;4974510;28;20074;-70
2023/06/26 01:42:36;;;;;;;9.23;7.30;;;23.90;98.20;;;;;;4974358;28;20121;-68
2023/06/26 01:45:34;;;;;;;9.73;7.22;;;23.90;98.20;;;;;;4974164;28;20515;-67
2023/06/26 01:48:02;;;;;;;8.85;7.38;;;23.90;98.20;;;;;;4972977;28;20137;-69
2023/06/26 01:50:30;;;;;;;10.43;7.70;;;23.90;98.30;;;;;;4973848;28;20051;-77
2023/06/26 01:53:12;;;;;;;8.02;7.18;;;23.90;98.20;;;;;;4974652;28;20059;-68
2023/06/26 01:55:44;;;;;;;10.73;7.35;;;23.90;98.60;;;;;;4956853;28;20068;-68
2023/06/26 01:58:10;;;;;;;7.88;7.05;;;23.90;98.20;;;;;;4973455;28;20047;-68
2023/06/26 02:00:37;;;;;;;8.27;7.45;;;23.90;98.20;;;;;;4935834;28;1121918;-68
2023/06/26 02:03:04;;;;;;;10.60;7.10;;;23.90;98.40;;;;;;4975661;28;20059;-68
2023/06/26 02:05:33;;;;;;;10.27;7.72;;;23.80;98.50;;;;;;4975037;28;20110;-77
2023/06/26 02:08:01;;;;;;;9.13;7.00;;;23.80;98.50;;;;;;4942075;28;20405;-68
2023/06/26 02:10:26;;;;;;;10.55;7.32;;;23.80;98.60;;;;;;4975575;28;20059;-74
2023/06/26 02:12:52;;;;;;;9.55;7.32;;;23.80;98.50;;;;;;4960220;28;20256;-68
2023/06/26 02:15:18;;;;;;;9.55;7.43;;;23.80;98.40;;;;;;4967640;28;20097;-67
2023/06/26 02:17:47;;;;;;;8.30;7.32;;;23.80;98.30;;;;;;4974901;28;20094;-67
2023/06/26 02:20:14;;;;;;;8.75;6.47;;;23.80;98.10;;;;;;4974773;28;20078;-67
2023/06/26 02:22:39;;;;;;;8.88;7.18;;;23.80;98.20;;;;;;4975083;28;20051;-68
2023/06/26 02:25:06;;;;;;;9.50;7.93;;;23.80;98.00;;;;;;4967914;28;20043;-68
2023/06/26 02:27:31;;;;;;;8.40;7.20;;;23.80;98.00;;;;;;4957663;28;20094;-67
2023/06/26 02:29:57;;;;;;;9.00;7.53;;;23.80;98.10;;;;;;4957387;28;20046;-68
2023/06/26 02:32:23;;;;;;;8.68;7.50;;;23.80;98.30;;;;;;4941353;28;20109;-67
2023/06/26 02:34:48;;;;;;;9.13;7.55;;;23.80;98.20;;;;;;4941246;28;20046;-67
2023/06/26 02:37:16;;;;;;;9.50;7.13;;;23.80;98.20;;;;;;4974911;28;20143;-69
2023/06/26 02:39:41;;;;;;;10.05;7.70;;;23.80;98.30;;;;;;4974399;28;20043;-70
2023/06/26 02:42:07;;;;;;;9.52;7.88;;;23.70;98.50;;;;;;4958112;28;20511;-69
2023/06/26 02:44:33;;;;;;;9.63;7.78;;;23.70;98.60;;;;;;4973214;28;20050;-68
2023/06/26 02:46:58;;;;;;;8.55;7.65;;;23.70;98.50;;;;;;4972438;28;20047;-68
2023/06/26 02:49:24;;;;;;;8.73;7.82;;;23.70;98.60;;;;;;4974755;28;20043;-68
2023/06/26 02:51:50;;;;;;;15.88;8.15;;;23.70;98.60;;;;;;4946246;28;20504;-68
2023/06/26 02:54:15;;;;;;;12.10;8.23;;;23.70;98.50;;;;;;4957311;28;20097;-69
2023/06/26 02:56:41;;;;;;;9.93;8.23;;;23.60;98.50;;;;;;4956729;28;20051;-73
2023/06/26 02:59:07;;;;;;;10.32;8.65;;;23.60;98.50;;;;;;4974135;28;20090;-68
2023/06/26 03:01:33;;;;;;;9.55;8.20;;;23.60;98.50;;;;;;4973410;28;20130;-68
2023/06/26 03:04:00;;;;;;;9.02;7.65;;;23.60;98.60;;;;;;4956552;28;20097;-69
2023/06/26 03:06:27;;;;;;;9.50;8.55;;;23.60;98.90;;;;;;4956831;28;20046;-68
2023/06/26 03:08:53;;;;;;;9.93;8.40;;;23.60;98.60;;;;;;4973916;28;20055;-68
2023/06/26 03:11:19;;;;;;;10.73;8.98;;;23.60;98.70;;;;;;4973052;28;20039;-69
2023/06/26 03:13:45;;;;;;;11.02;9.05;;;23.50;98.70;;;;;;4973686;28;20082;-69
2023/06/26 03:16:11;;;;;;;10.85;8.40;;;23.50;98.80;;;;;;4974299;28;20058;-68
2023/06/26 03:18:36;;;;;;;11.82;9.27;;;23.50;98.90;;;;;;4974356;28;20042;-68
2023/06/26 03:21:02;;;;;;;10.43;9.20;;;23.50;99.00;;;;;;4973173;28;20447;-68
2023/06/26 03:23:28;;;;;;;12.27;9.55;;;23.40;99.10;;;;;;4956258;28;20055;-68
2023/06/26 03:25:54;;;;;;;11.20;10.00;;;23.40;99.10;;;;;;4956321;28;20097;-67
2023/06/26 03:28:19;;;;;;;10.45;9.38;;;23.40;99.50;;;;;;4974053;28;20496;-68
2023/06/26 03:30:45;;;;;;;11.13;8.98;;;23.30;99.50;;;;;;4973223;28;20046;-69
2023/06/26 03:33:11;;;;;;;10.45;9.43;;;23.30;99.60;;;;;;4973915;28;20046;-69
2023/06/26 03:35:37;;;;;;;11.27;9.68;;;23.30;99.80;;;;;;4973565;28;20485;-68
2023/06/26 03:38:04;;;;;;;12.20;10.13;;;23.20;99.90;;;;;;4972690;28;20193;-68
2023/06/26 03:40:30;;;;;;;11.90;9.77;;;23.20;99.90;;;;;;4973771;28;20471;-67
2023/06/26 03:42:56;;;;;;;12.95;9.98;;;23.20;99.90;;;;;;4965045;28;20206;-68
2023/06/26 03:45:21;;;;;;;10.88;9.70;;;23.10;99.90;;;;;;4967648;28;20154;-68
2023/06/26 03:47:49;;;;;;;14.15;9.70;;;23.10;99.90;;;;;;4955548;28;20505;-69
2023/06/26 03:50:16;;;;;;;11.13;9.93;;;23.10;99.90;;;;;;4973518;28;20046;-67
2023/06/26 03:52:41;;;;;;;11.35;9.30;;;23.10;99.90;;;;;;4973245;28;20076;-68
2023/06/26 03:55:07;;;;;;;11.63;10.07;;;23.10;99.90;;;;;;4972985;28;20042;-69
2023/06/26 03:57:33;;;;;;;13.50;10.27;;;23.00;99.90;;;;;;4956289;28;20129;-68
2023/06/26 03:59:59;;;;;;;11.70;9.85;;;23.00;99.90;;;;;;4972612;28;20137;-68
2023/06/26 04:02:25;;;;;;;12.65;9.63;;;23.00;99.90;;;;;;4968805;28;20500;-69
2023/06/26 04:04:51;;;;;;;11.32;10.13;;;23.00;99.90;;;;;;4972506;28;20050;-71
2023/06/26 04:07:18;;;;;;;11.07;9.90;;;23.00;99.90;;;;;;4954432;28;20448;-68
2023/06/26 04:09:44;;;;;;;12.60;9.68;;;23.00;99.90;;;;;;4973243;28;20051;-69
2023/06/26 04:12:09;;;;;;;11.98;9.13;;;22.90;99.90;;;;;;4955524;28;20246;-68
2023/06/26 04:14:35;;;;;;;10.93;8.98;;;22.90;99.90;;;;;;4972727;28;20381;-69
2023/06/26 04:17:04;;;;;;;10.70;9.60;;;23.00;99.90;;;;;;4972667;28;20038;-68
2023/06/26 04:19:30;;;;;;;10.75;8.80;;;23.00;99.90;;;;;;4972563;28;20522;-68
2023/06/26 04:21:56;;;;;;;11.85;9.30;;;23.00;99.90;;;;;;4972707;28;20047;-68
2023/06/26 04:24:22;;;;;;;11.50;9.45;;;22.90;99.90;;;;;;4973184;28;20113;-68
2023/06/26 04:26:48;;;;;;;13.18;10.10;;;22.90;99.90;;;;;;4955362;28;20043;-68
2023/06/26 04:29:14;;;;;;;11.77;9.65;;;22.90;99.90;;;;;;4955341;28;20546;-68
2023/06/26 04:31:39;;;;;;;14.25;9.38;;;22.90;99.90;;;;;;4972946;28;20078;-68
2023/06/26 04:34:05;;;;;;;11.98;9.25;;;22.90;99.90;;;;;;4954474;28;20126;-68
2023/06/26 04:36:33;;;;;;;11.05;8.57;;;22.90;99.90;;;;;;4972558;28;20074;-68
2023/06/26 04:38:59;;;;;;;10.82;9.30;;;22.90;99.90;;;;;;4972245;28;20050;-68
2023/06/26 04:41:25;;;;;;;10.02;8.98;;;23.00;99.90;;;;;;4972634;28;20420;-68
2023/06/26 04:43:51;;;;;;;13.95;8.57;;;23.00;99.90;;;;;;4972241;28;20051;-68
2023/06/26 04:46:17;;;;;;;10.15;8.35;;;23.00;99.90;;;;;;4975965;28;20551;-69
2023/06/26 04:48:44;;;;;;;9.05;7.70;;;23.00;99.90;;;;;;4972809;28;20134;-68
2023/06/26 04:51:10;;;;;;;10.77;7.82;;;23.10;99.90;;;;;;4970763;28;20062;-69
2023/06/26 04:53:37;;;;;;;9.77;7.95;;;23.10;99.90;;;;;;4955459;28;20078;-68
2023/06/26 04:56:03;;;;;;;11.27;8.13;;;23.30;99.90;;;;;;4971667;28;20066;-68
2023/06/26 04:58:28;;;;;;;15.43;8.52;;;23.40;99.90;;;;;;4972153;28;20042;-69
2023/06/26 05:00:54;;;;;;;13.63;8.38;;;23.30;99.90;;;;;;4971094;28;20130;-68
2023/06/26 05:03:22;;;;;;;12.35;8.60;;;23.20;99.90;;;;;;4981220;28;20129;-68
2023/06/26 05:05:48;;;;;;;16.67;8.18;;;23.10;99.90;;;;;;4954818;28;20050;-76
2023/06/26 05:08:32;;;;;;;14.60;9.40;;;23.00;99.90;;;;;;4971532;28;20401;-68
2023/06/26 05:10:58;;;;;;;13.90;9.75;;;22.90;99.90;;;;;;4953041;28;20501;-77
2023/06/26 05:13:26;;;;;;;15.85;9.30;;;22.70;99.90;;;;;;4982903;28;20043;-68
2023/06/26 05:15:53;;;;;;;15.32;9.43;;;22.50;99.90;;;;;;4970014;28;20519;-69
2023/06/26 05:18:19;;;;;;;15.75;9.75;;;22.40;99.90;;;;;;4981693;28;20055;-70
2023/06/26 05:20:45;;;;;;;16.33;9.57;;;22.40;99.90;;;;;;4986788;28;20052;-70
2023/06/26 05:23:15;;;;;;;19.15;10.63;;;22.20;99.90;;;;;;4965612;28;20047;-72
2023/06/26 05:25:41;;;;;;;21.42;11.32;;;22.20;99.90;;;;;;4971921;28;20117;-71
2023/06/26 05:28:10;;;;;;;22.02;11.52;;;22.10;99.90;;;;;;4971940;28;20102;-68
2023/06/26 05:30:36;;;;;;;15.95;10.38;;;22.10;99.90;;;;;;4971775;28;20043;-68
2023/06/26 05:33:03;;;;;;;23.13;10.82;;;21.90;99.90;;;;;;4976543;28;20054;-76
2023/06/26 05:35:30;;;;;;;16.58;9.18;;;21.80;99.90;;;;;;4956253;28;20054;-67
2023/06/26 05:37:57;;;;;;;16.83;8.68;;;21.80;99.90;;;;;;4979756;28;20050;-68
2023/06/26 05:40:24;;;;;;;15.73;7.20;;;21.70;99.90;;;;;;4979419;28;20057;-68
2023/06/26 05:42:50;;;;;;;20.92;7.30;;;21.50;99.90;;;;;;4971393;28;20399;-68
2023/06/26 05:45:16;;;;;;;17.67;7.68;;;21.40;99.90;;;;;;4972486;28;20046;-68
2023/06/26 05:47:42;;;;;;;17.55;7.75;;;21.40;99.90;;;;;;4975231;28;20125;-68
2023/06/26 05:50:09;;;;;;;17.55;7.72;;;21.30;99.90;;;;;;4972814;28;20053;-67
2023/06/26 05:52:36;;;;;;;14.80;7.20;;;21.30;99.90;;;;;;4955143;28;20054;-68
2023/06/26 05:55:02;;;;;;;14.35;6.95;;;21.20;99.90;;;;;;4954715;28;20086;-68
2023/06/26 05:57:29;;;;;;;16.75;6.88;;;21.20;99.90;;;;;;4971045;28;20123;-67
2023/06/26 05:59:56;;;;;;;17.52;6.72;;;21.20;99.90;;;;;;4963993;28;20058;-68
2023/06/26 06:02:22;;;;;;;14.38;6.38;;;21.20;99.90;;;;;;4938056;29;20059;-68
2023/06/26 06:04:48;;;;;;;15.30;6.53;;;21.20;99.90;;;;;;4956060;28;20054;-68
2023/06/26 06:07:14;;;;;;;11.90;6.00;;;21.30;99.90;;;;;;4954427;28;20054;-68
2023/06/26 06:09:39;;;;;;;20.30;6.25;;;21.50;99.90;;;;;;4955865;28;20039;-67
2023/06/26 06:12:06;;;;;;;14.85;5.47;;;21.80;99.90;;;;;;4954451;28;20055;-76
2023/06/26 06:14:33;;;;;;;14.77;5.35;;;22.20;99.90;;;;;;4971491;28;20571;-67
2023/06/26 06:16:58;;;;;;;13.48;5.38;;;22.40;99.90;;;;;;4969790;28;20043;-68
2023/06/26 06:19:24;;;;;;;20.55;5.78;;;22.50;99.90;;;;;;4961348;28;20043;-68
2023/06/26 06:21:50;;;;;;;16.88;4.90;;;22.60;99.90;;;;;;4972050;28;20615;-68
2023/06/26 06:24:15;;;;;;;12.35;4.60;;;22.70;99.90;;;;;;4946125;29;20146;-67
2023/06/26 06:26:41;;;;;;;14.43;4.45;;;22.90;99.90;;;;;;4955453;28;20043;-73
2023/06/26 06:29:07;;;;;;;12.27;4.63;;;23.30;99.90;;;;;;4954799;28;20040;-72
2023/06/26 06:31:33;;;;;;;12.48;4.07;;;23.60;99.90;;;;;;4938487;29;20087;-67
2023/06/26 06:33:58;;;;;;;14.52;4.45;;;24.40;99.90;;;;;;4955611;28;20485;-67
2023/06/26 06:36:24;;;;;;;14.65;4.80;;;25.10;99.90;;;;;;4955282;28;20094;-68
2023/06/26 06:38:50;;;;;;;11.60;3.95;;;25.70;99.90;;;;;;4955292;28;20046;-66
2023/06/26 06:41:16;;;;;;;12.20;3.95;;;26.10;99.90;;;;;;4955314;28;20079;-67
2023/06/26 06:43:42;;;;;;;12.77;3.83;;;26.40;99.90;;;;;;4906981;28;20070;-72
2023/06/26 06:46:08;;;;;;;10.43;4.00;;;26.90;99.00;;;;;;4955627;28;20059;-66
2023/06/26 06:48:34;;;;;;;11.18;3.22;;;27.30;97.50;;;;;;4954677;28;20039;-66
2023/06/26 06:51:00;;;;;;;10.77;3.40;;;27.20;97.10;;;;;;4954191;28;20148;-68
2023/06/26 06:53:26;;;;;;;10.05;3.45;;;27.30;96.90;;;;;;4954894;28;20516;-67
2023/06/26 06:55:52;;;;;;;9.02;3.00;;;27.60;96.30;;;;;;4961323;28;20076;-67
2023/06/26 06:58:20;;;;;;;9.88;3.70;;;27.60;96.30;;;;;;4959545;28;20102;-67
2023/06/26 07:00:46;;;;;;;10.20;3.40;;;27.90;95.60;;;;;;4940926;29;20055;-69
2023/06/26 07:03:12;;;;;;;10.98;3.38;;;28.30;95.80;;;;;;4958889;28;20051;-72
2023/06/26 07:05:38;;;;;;;9.52;3.10;;;28.40;94.60;;;;;;4966232;28;20042;-67
2023/06/26 07:08:04;;;;;;;8.70;3.05;;;28.50;94.70;;;;;;4968866;28;20047;-67
2023/06/26 07:10:31;;;;;;;7.28;2.58;;;28.80;94.00;;;;;;4961395;28;20152;-67
2023/06/26 07:12:57;;;;;;;7.72;2.20;;;29.00;93.20;;;;;;4968406;28;20555;-68
2023/06/26 07:15:22;;;;;;;7.00;2.42;;;29.20;93.10;;;;;;4931239;29;20055;-67
2023/06/26 07:17:48;;;;;;;8.30;2.58;;;29.40;92.80;;;;;;4959794;28;20509;-67
2023/06/26 07:20:15;;;;;;;8.10;2.60;;;29.20;92.80;;;;;;4962529;28;20131;-70
2023/06/26 07:22:42;;;;;;;13.20;3.05;;;29.00;92.50;;;;;;4943047;28;20489;-68
2023/06/26 07:25:11;;;;;;;7.35;2.60;;;29.30;92.90;;;;;;4959228;28;20149;-68
2023/06/26 07:27:37;;;;;;;8.30;2.80;;;29.30;92.30;;;;;;4954659;28;20301;-68
2023/06/26 07:30:03;;;;;;;7.80;2.40;;;28.60;92.70;;;;;;4954682;28;20047;-67
2023/06/26 07:32:29;;;;;;;5.72;2.25;;;28.40;92.90;;;;;;4953594;28;20058;-68
2023/06/26 07:34:55;;;;;;;6.55;2.30;;;28.20;93.00;;;;;;4954204;29;20135;-68
2023/06/26 07:37:21;;;;;;;9.05;2.60;;;28.20;93.00;;;;;;4954556;29;20126;-68
2023/06/26 07:39:47;;;;;;;6.88;2.63;;;28.50;92.80;;;;;;4954244;29;20497;-69
2023/06/26 07:42:13;;;;;;;8.02;2.65;;;29.00;92.00;;;;;;4937002;29;20051;-67
2023/06/26 07:44:39;;;;;;;8.93;2.63;;;28.60;92.50;;;;;;4956173;28;20043;-68
2023/06/26 07:47:05;;;;;;;8.00;2.38;;;28.60;92.70;;;;;;4940923;29;20039;-67
2023/06/26 07:49:30;;;;;;;7.82;2.60;;;28.30;92.60;;;;;;4958483;28;20053;-67
2023/06/26 07:51:56;;;;;;;8.05;2.25;;;28.00;92.80;;;;;;4938592;29;20576;-69
2023/06/26 07:54:22;;;;;;;5.70;1.98;;;27.40;93.10;;;;;;4949585;28;20043;-75
2023/06/26 07:56:54;;;;;;;6.03;1.95;;;27.30;93.10;;;;;;4952691;28;20047;-68
2023/06/26 07:59:22;;;;;;;7.10;2.08;;;27.60;92.60;;;;;;4956619;28;20050;-77
2023/06/26 08:01:48;;;;;;;6.35;1.95;;;28.10;92.40;;;;;;4953403;28;20047;-69
2023/06/26 08:04:14;;;;;;;5.15;1.92;;;28.60;92.20;;;;;;4954024;28;20051;-68
2023/06/26 08:06:40;;;;;;;5.65;1.90;;;28.80;91.70;;;;;;4952724;28;20404;-68
2023/06/26 08:09:07;;;;;;;4.85;1.90;;;28.80;91.80;;;;;;4936873;29;20035;-68
2023/06/26 08:11:33;;;;;;;4.35;1.92;;;28.80;91.50;;;;;;4960906;28;20134;-68
2023/06/26 08:13:59;;;;;;;6.88;2.38;;;28.40;92.10;;;;;;4955744;28;20582;-67
2023/06/26 08:16:25;;;;;;;9.82;2.45;;;28.00;92.30;;;;;;4972794;28;20496;-71
2023/06/26 08:18:51;;;;;;;6.35;2.15;;;28.00;92.40;;;;;;4962602;28;20075;-68
2023/06/26 08:21:17;;;;;;;4.22;1.90;;;27.80;91.90;;;;;;4961424;28;20047;-68
2023/06/26 08:23:43;;;;;;;7.07;2.10;;;27.50;92.00;;;;;;4961585;28;20051;-68
2023/06/26 08:26:08;;;;;;;7.05;2.20;;;27.60;92.10;;;;;;4952603;29;20140;-67
2023/06/26 08:28:34;;;;;;;9.60;2.30;;;27.60;92.40;;;;;;4953146;28;20133;-67
2023/06/26 08:31:00;;;;;;;6.50;2.03;;;27.70;92.10;;;;;;4936356;29;20055;-67
2023/06/26 08:33:26;;;;;;;10.65;2.45;;;27.70;92.50;;;;;;4953129;28;20058;-79
2023/06/26 08:35:51;;;;;;;7.53;2.17;;;28.10;92.40;;;;;;4953028;28;20097;-68
2023/06/26 08:38:18;;;;;;;9.68;1.92;;;28.60;91.90;;;;;;4953308;28;20044;-67
2023/06/26 08:40:44;;;;;;;6.97;2.55;;;28.50;92.20;;;;;;4962663;28;20058;-72
2023/06/26 08:43:10;;;;;;;8.52;2.55;;;27.90;92.20;;;;;;4953242;28;20051;-67
2023/06/26 08:45:35;;;;;;;6.63;2.13;;;27.90;92.20;;;;;;4935491;28;20055;-67
2023/06/26 08:48:03;;;;;;;3.30;1.80;;;27.60;92.40;;;;;;4957900;28;20039;-69
2023/06/26 08:50:33;;;;;;;8.40;2.38;;;27.20;92.50;;;;;;4959414;28;20047;-79
2023/06/26 08:53:15;;;;;;;5.45;2.60;;;26.90;92.80;;;;;;4956726;28;20043;-69
2023/06/26 08:55:53;;;;;;;7.10;2.30;;;26.90;93.10;;;;;;4954729;28;20417;-77
2023/06/26 08:58:19;;;;;;;6.20;2.13;;;27.30;93.00;;;;;;4937221;29;20057;-76
2023/06/26 09:00:49;;;;;;;6.50;2.25;;;27.80;92.40;;;;;;4951313;28;20161;-70
2023/06/26 09:03:15;;;;;;;5.38;2.00;;;28.50;91.90;;;;;;4956869;28;20057;-69
2023/06/26 09:05:41;;;;;;;4.78;2.10;;;28.50;91.30;;;;;;4955518;28;20051;-71
2023/06/26 09:08:07;;;;;;;7.93;2.58;;;28.00;91.70;;;;;;4972811;28;20090;-69
2023/06/26 09:10:33;;;;;;;5.13;2.20;;;27.90;91.90;;;;;;4972882;28;20381;-71
2023/06/26 09:13:01;;;;;;;6.80;2.95;;;28.00;91.70;;;;;;4972072;28;20078;-69
2023/06/26 09:15:30;;;;;;;8.50;2.35;;;28.10;91.60;;;;;;4924557;28;20050;-73
2023/06/26 09:17:59;;;;;;;5.25;2.13;;;28.10;91.70;;;;;;4940967;28;20050;-76
2023/06/26 09:20:32;;;;;;;6.70;2.30;;;28.00;91.90;;;;;;4955959;28;20054;-70
2023/06/26 09:22:59;;;;;;;5.32;2.38;;;28.00;91.80;;;;;;4955846;28;20090;-71
2023/06/26 09:25:26;;;;;;;7.45;2.13;;;27.90;91.80;;;;;;4955861;28;20043;-71
2023/06/26 09:27:52;;;;;;;5.82;2.40;;;28.00;91.40;;;;;;4971183;28;20485;-72
2023/06/26 09:30:18;;;;;;;6.72;2.53;;;28.30;91.00;;;;;;4972940;28;20061;-71
2023/06/26 09:32:44;;;;;;;8.07;2.38;;;28.20;91.30;;;;;;4955374;28;20047;-71
2023/06/26 09:35:10;;;;;;;7.28;2.17;;;28.00;91.60;;;;;;4974355;28;20074;-71
2023/06/26 09:37:36;;;;;;;6.35;2.58;;;28.20;91.40;;;;;;4959468;28;20441;-76
2023/06/26 09:40:03;;;;;;;5.43;2.55;;;28.40;91.60;;;;;;4959455;28;20047;-72
2023/06/26 09:42:29;;;;;;;7.22;2.33;;;28.70;91.10;;;;;;4976385;28;20399;-71
2023/06/26 09:44:55;;;;;;;6.07;2.22;;;28.90;91.00;;;;;;4976171;28;20667;-70
2023/06/26 09:47:21;;;;;;;7.28;2.60;;;28.90;90.90;;;;;;4943333;28;20126;-70
2023/06/26 09:49:47;;;;;;;6.00;2.35;;;28.60;90.90;;;;;;4976155;28;20162;-70
2023/06/26 09:52:17;;;;;;;4.93;2.63;;;28.20;91.10;;;;;;4959404;28;20495;-69
2023/06/26 09:54:46;;;;;;;5.10;2.50;;;27.90;90.90;;;;;;4958799;28;20062;-70
2023/06/26 09:57:13;;;;;;;7.93;2.58;;;27.70;90.70;;;;;;4958513;28;20062;-70
2023/06/26 09:59:46;;;;;;;5.28;2.78;;;27.60;90.60;;;;;;4958552;28;20106;-76
2023/06/26 10:02:12;;;;;;;6.77;2.90;;;27.60;90.70;;;;;;4959382;28;20090;-71
2023/06/26 10:04:38;;;;;;;6.32;2.60;;;27.50;90.70;;;;;;4943448;28;20326;-74
2023/06/26 10:07:06;;;;;;;8.95;2.67;;;27.50;90.80;;;;;;4958658;28;20057;-72
2023/06/26 10:09:34;;;;;;;6.18;2.72;;;27.60;91.00;;;;;;4958965;28;20085;-73
2023/06/26 10:12:15;;;;;;;6.03;2.85;;;27.60;91.00;;;;;;4942639;28;20625;-73
2023/06/26 10:14:42;;;;;;;8.27;2.78;;;27.50;90.80;;;;;;4976004;28;20129;-73
2023/06/26 10:17:11;;;;;;;6.63;2.70;;;27.30;90.70;;;;;;4958581;28;20058;-73
2023/06/26 10:19:41;;;;;;;6.90;2.72;;;27.20;90.50;;;;;;4959025;28;20129;-74
2023/06/26 10:22:08;;;;;;;6.65;2.78;;;27.00;90.50;;;;;;4958728;28;20086;-74
2023/06/26 10:24:36;;;;;;;4.97;2.63;;;27.10;91.20;;;;;;4958805;28;20082;-74
2023/06/26 10:27:18;;;;;;;5.65;2.40;;;27.20;91.20;;;;;;4958166;28;20061;-74
2023/06/26 10:29:49;;;;;;;6.93;2.53;;;27.20;90.00;;;;;;4958472;28;20180;-75
2023/06/26 10:32:17;;;;;;;6.57;2.65;;;27.40;90.50;;;;;;4958911;28;20054;-72
2023/06/26 10:34:43;;;;;;;6.18;2.63;;;27.40;90.70;;;;;;4958329;28;20050;-75
2023/06/26 10:37:09;;;;;;;7.15;3.30;;;27.40;90.70;;;;;;4958175;28;20492;-74
2023/06/26 10:39:50;;;;;;;13.88;2.88;;;27.20;90.10;;;;;;4974658;28;20057;-75
2023/06/26 10:42:21;;;;;;;4.93;2.67;;;27.00;90.50;;;;;;4938867;28;20046;-76
2023/06/26 10:44:47;;;;;;;8.32;3.53;;;26.90;90.90;;;;;;4955877;28;20046;-75
2023/06/26 10:47:32;;;;;;;7.40;3.03;;;26.80;91.20;;;;;;4957850;28;20472;-74
2023/06/26 10:50:24;;;;;;;4.32;2.50;;;26.80;91.10;;;;;;4957471;28;20043;-75
2023/06/26 10:53:18;;;;;;;6.05;2.42;;;26.90;91.20;;;;;;4957223;28;20567;-75
2023/06/26 10:55:49;;;;;;;;;;;26.60;91.10;;;;;;4957019;28;20054;-72
2023/06/26 10:58:34;;;;;;;10.00;3.10;;;26.20;91.20;;;;;;4942026;28;20016;-74
2023/06/26 11:01:13;;;;;;;9.10;2.63;;;26.00;91.60;;;;;;4957311;28;20078;-74
2023/06/26 11:03:39;;;;;;;6.95;2.42;;;25.90;91.90;;;;;;4957596;28;20054;-73
2023/06/26 11:06:12;;;;;;;6.35;2.53;;;26.00;91.20;;;;;;4957328;28;20127;-74
2023/06/26 11:08:48;;;;;;;6.65;3.03;;;26.30;91.20;;;;;;4974034;28;20095;-74
2023/06/26 11:11:14;;;;;;;5.07;2.35;;;26.30;91.50;;;;;;4957747;28;20047;-74
2023/06/26 11:13:41;;;;;;;11.38;2.50;;;26.40;91.40;;;;;;4957724;28;20051;-75
2023/06/26 11:16:07;;;;;;;8.57;2.30;;;26.30;90.90;;;;;;4956849;28;20047;-74
2023/06/26 11:18:33;;;;;;;11.60;2.88;;;26.30;90.70;;;;;;4957741;28;20102;-72
2023/06/26 11:21:09;;;;;;;10.73;2.97;;;26.20;90.80;;;;;;4941066;28;20051;-73
2023/06/26 11:23:37;;;;;;;13.02;2.92;;;26.10;90.80;;;;;;4925399;28;20046;-72
2023/06/26 11:26:37;;;;;;;8.00;2.20;;;26.00;90.90;;;;;;4956881;28;20059;-74
2023/06/26 11:29:03;;;;;;;10.00;2.15;;;25.70;91.00;;;;;;4943422;28;20192;-73
2023/06/26 11:31:31;;;;;;;7.20;1.90;;;25.70;91.00;;;;;;4941105;28;20130;-74
2023/06/26 11:33:58;;;;;;;7.10;2.15;;;25.60;90.80;;;;;;4956526;28;20059;-74
2023/06/26 11:36:25;;;;;;;11.50;2.30;;;25.60;91.00;;;;;;4956662;28;20065;-73
2023/06/26 11:39:09;;;;;;;9.18;2.63;;;25.80;91.40;;;;;;4941135;28;20072;-76
2023/06/26 11:41:36;;;;;;;5.85;1.98;;;26.00;91.00;;;;;;4957315;28;20069;-73
2023/06/26 11:44:02;;;;;;;9.02;2.35;;;26.00;90.90;;;;;;4956856;28;20059;-73
2023/06/26 11:46:28;;;;;;;6.80;2.22;;;25.80;90.90;;;;;;4956907;28;20051;-73
2023/06/26 11:48:54;;;;;;;7.43;2.45;;;25.80;91.30;;;;;;4940011;28;20453;-72
2023/06/26 11:51:20;;;;;;;6.15;2.30;;;25.90;91.40;;;;;;4940890;28;20051;-74
2023/06/26 11:53:47;;;;;;;6.97;2.35;;;25.90;91.40;;;;;;4925127;28;20089;-74
2023/06/26 11:56:17;;;;;;;8.35;1.75;;;26.00;91.20;;;;;;4956821;28;20126;-73
2023/06/26 11:59:04;;;;;;;14.15;2.00;;;25.80;90.60;;;;;;4956576;28;20050;-75
2023/06/26 12:01:32;;;;;;;5.57;2.10;;;25.80;89.90;;;;;;4956425;28;20098;-75
2023/06/26 12:04:01;;;;;;;7.30;1.90;;;25.80;90.30;;;;;;4956162;28;20141;-74
2023/06/26 12:06:28;;;;;;;7.50;2.10;;;26.00;91.10;;;;;;4956553;28;20097;-74
2023/06/26 12:08:54;;;;;;;9.90;2.30;;;25.90;90.60;;;;;;4925425;28;20066;-76
2023/06/26 12:11:23;;;;;;;8.88;2.08;;;25.90;90.60;;;;;;4956766;28;20047;-73
2023/06/26 12:13:49;;;;;;;8.90;2.25;;;26.00;90.50;;;;;;4956449;28;20046;-74
2023/06/26 12:16:15;;;;;;;14.45;2.72;;;26.10;90.10;;;;;;4940373;28;20051;-73
2023/06/26 12:18:41;;;;;;;8.88;2.30;;;25.90;90.10;;;;;;4956757;28;20137;-73
2023/06/26 12:21:07;;;;;;;7.63;2.05;;;25.80;90.50;;;;;;4956328;28;20138;-74
2023/06/26 12:23:41;;;;;;;9.73;2.28;;;25.70;90.50;;;;;;4940408;28;20086;-74
2023/06/26 12:26:20;;;;;;;7.72;2.25;;;25.60;90.30;;;;;;4971777;28;20046;-73
2023/06/26 12:28:46;;;;;;;11.35;2.42;;;25.50;90.20;;;;;;4956454;28;20047;-73
2023/06/26 12:31:14;;;;;;;9.90;2.40;;;25.60;90.40;;;;;;4939723;28;20054;-74
2023/06/26 12:33:40;;;;;;;7.55;2.63;;;25.50;90.20;;;;;;4956135;28;20069;-74
2023/06/26 12:36:13;;;;;;;8.05;2.15;;;25.50;90.10;;;;;;4955823;28;20050;-74
2023/06/26 12:38:40;;;;;;;6.97;2.17;;;25.40;89.80;;;;;;4956549;28;20046;-74
2023/06/26 12:41:15;;;;;;;10.60;2.40;;;25.40;89.60;;;;;;4955870;28;20408;-75
2023/06/26 12:43:42;;;;;;;9.45;2.08;;;25.40;88.70;;;;;;4956397;28;20055;-74
2023/06/26 12:46:08;;;;;;;6.97;1.83;;;25.20;89.60;;;;;;4971512;28;20101;-72